SWA3846 KLAS-KDEN
Flight info
| Callsign | SWA3846 |
|---|---|
| Flight time | 1h 26m |
| Altitude | 37000 |
| Route | GIDGT3 TUKRR BUMMP SSKII4 |
| Aircraft | B38M/M-SDE1FGHILORVWXY/HB1 |
Departure
| Time | 2026-05-06 05:13 |
|---|---|
| Airport | Harry Reid International Airport (KLAS) |
Arrival
| Time | 2026-05-06 06:39 |
|---|---|
| Airport | Denver International Airport (KDEN) |
| Time | Latitude | Longitude | Altitude | Speed | Heading |
|---|---|---|---|---|---|
| 2026-05-06 04:39 | 36.08332 | -115.15273 | 2099 ft | 0 kts | 179° |
| 2026-05-06 04:53 | 36.08340 | -115.15273 | 2099 ft | 4 kts | 174° |
| 2026-05-06 04:53 | 36.08365 | -115.15282 | 2099 ft | 4 kts | 150° |
| 2026-05-06 04:53 | 36.08388 | -115.15301 | 2099 ft | 4 kts | 144° |
| 2026-05-06 04:53 | 36.08405 | -115.15316 | 2099 ft | 4 kts | 147° |
| 2026-05-06 04:54 | 36.08417 | -115.15325 | 2099 ft | 1 kts | 147° |
| 2026-05-06 04:58 | 36.08410 | -115.15320 | 2099 ft | 2 kts | 150° |
| 2026-05-06 04:58 | 36.08405 | -115.15316 | 2099 ft | 0 kts | 152° |
| 2026-05-06 04:59 | 36.08403 | -115.15316 | 2099 ft | 1 kts | 157° |
| 2026-05-06 04:59 | 36.08391 | -115.15328 | 2099 ft | 4 kts | 258° |
| 2026-05-06 04:59 | 36.08393 | -115.15379 | 2099 ft | 7 kts | 273° |
| 2026-05-06 05:00 | 36.08378 | -115.15440 | 2100 ft | 8 kts | 245° |
| 2026-05-06 05:00 | 36.08371 | -115.15457 | 2100 ft | 0 kts | 244° |
| 2026-05-06 05:00 | 36.08370 | -115.15461 | 2100 ft | 1 kts | 244° |
| 2026-05-06 05:00 | 36.08369 | -115.15464 | 2100 ft | 0 kts | 244° |
| 2026-05-06 05:02 | 36.08368 | -115.15465 | 2100 ft | 0 kts | 244° |
| 2026-05-06 05:03 | 36.08361 | -115.15485 | 2100 ft | 6 kts | 245° |
| 2026-05-06 05:03 | 36.08335 | -115.15547 | 2101 ft | 9 kts | 235° |
| 2026-05-06 05:03 | 36.08282 | -115.15565 | 2102 ft | 9 kts | 165° |
| 2026-05-06 05:03 | 36.08220 | -115.15533 | 2101 ft | 11 kts | 155° |
| 2026-05-06 05:04 | 36.08147 | -115.15490 | 2101 ft | 12 kts | 155° |
| 2026-05-06 05:04 | 36.08063 | -115.15442 | 2100 ft | 14 kts | 155° |
| 2026-05-06 05:04 | 36.07972 | -115.15388 | 2100 ft | 15 kts | 155° |
| 2026-05-06 05:04 | 36.07897 | -115.15340 | 2101 ft | 9 kts | 137° |
| 2026-05-06 05:05 | 36.07878 | -115.15266 | 2102 ft | 10 kts | 90° |
| 2026-05-06 05:05 | 36.07878 | -115.15159 | 2101 ft | 16 kts | 90° |
| 2026-05-06 05:05 | 36.07872 | -115.15001 | 2101 ft | 20 kts | 95° |
| 2026-05-06 05:05 | 36.07863 | -115.14887 | 2100 ft | 21 kts | 94° |
| 2026-05-06 05:06 | 36.07852 | -115.14703 | 2099 ft | 22 kts | 95° |
| 2026-05-06 05:06 | 36.07838 | -115.14506 | 2099 ft | 23 kts | 94° |
| 2026-05-06 05:06 | 36.07828 | -115.14339 | 2098 ft | 16 kts | 92° |
| 2026-05-06 05:06 | 36.07828 | -115.14137 | 2097 ft | 19 kts | 90° |
| 2026-05-06 05:07 | 36.07827 | -115.13965 | 2096 ft | 21 kts | 90° |
| 2026-05-06 05:07 | 36.07827 | -115.13842 | 2095 ft | 22 kts | 90° |
| 2026-05-06 05:07 | 36.07827 | -115.13649 | 2094 ft | 23 kts | 90° |
| 2026-05-06 05:07 | 36.07828 | -115.13453 | 2093 ft | 22 kts | 90° |
| 2026-05-06 05:08 | 36.07828 | -115.13263 | 2090 ft | 23 kts | 89° |
| 2026-05-06 05:08 | 36.07828 | -115.13045 | 2082 ft | 28 kts | 90° |
| 2026-05-06 05:08 | 36.07828 | -115.12794 | 2071 ft | 31 kts | 90° |
| 2026-05-06 05:08 | 36.07829 | -115.12550 | 2063 ft | 25 kts | 90° |
| 2026-05-06 05:09 | 36.07828 | -115.12340 | 2058 ft | 17 kts | 90° |
| 2026-05-06 05:09 | 36.07794 | -115.12217 | 2054 ft | 16 kts | 128° |
| 2026-05-06 05:09 | 36.07752 | -115.12155 | 2051 ft | 0 kts | 129° |
| 2026-05-06 05:10 | 36.07747 | -115.12148 | 2051 ft | 3 kts | 130° |
| 2026-05-06 05:11 | 36.07721 | -115.12127 | 2052 ft | 6 kts | 165° |
| 2026-05-06 05:11 | 36.07670 | -115.12123 | 2053 ft | 8 kts | 183° |
| 2026-05-06 05:11 | 36.07643 | -115.12166 | 2051 ft | 6 kts | 265° |
| 2026-05-06 05:11 | 36.07643 | -115.12187 | 2052 ft | 0 kts | 270° |
| 2026-05-06 05:12 | 36.07643 | -115.12206 | 2052 ft | 12 kts | 270° |
| 2026-05-06 05:12 | 36.07642 | -115.12596 | 2065 ft | 76 kts | 270° |
| 2026-05-06 05:12 | 36.07642 | -115.13489 | 2092 ft | 129 kts | 270° |
| 2026-05-06 05:12 | 36.07640 | -115.14791 | 2115 ft | 171 kts | 268° |
| 2026-05-06 05:13 | 36.07648 | -115.16309 | 2600 ft | 176 kts | 266° |
| 2026-05-06 05:13 | 36.07650 | -115.17873 | 3193 ft | 182 kts | 266° |
| 2026-05-06 05:13 | 36.07639 | -115.19482 | 3745 ft | 194 kts | 268° |
| 2026-05-06 05:13 | 36.07648 | -115.21242 | 4172 ft | 212 kts | 269° |
| 2026-05-06 05:14 | 36.07656 | -115.23094 | 4878 ft | 218 kts | 269° |
| 2026-05-06 05:14 | 36.07649 | -115.24959 | 5701 ft | 219 kts | 269° |
| 2026-05-06 05:14 | 36.07951 | -115.26837 | 6142 ft | 238 kts | 297° |
| 2026-05-06 05:14 | 36.09090 | -115.28383 | 6577 ft | 255 kts | 329° |
| 2026-05-06 05:15 | 36.10774 | -115.29057 | 7341 ft | 254 kts | 349° |
| 2026-05-06 05:15 | 36.12496 | -115.29517 | 8184 ft | 254 kts | 348° |
| 2026-05-06 05:15 | 36.14299 | -115.29538 | 8641 ft | 270 kts | 14° |
| 2026-05-06 05:15 | 36.15968 | -115.28393 | 9205 ft | 280 kts | 44° |
| 2026-05-06 05:16 | 36.17055 | -115.26398 | 10036 ft | 283 kts | 60° |
| 2026-05-06 05:16 | 36.17869 | -115.24111 | 10462 ft | 300 kts | 66° |
| 2026-05-06 05:16 | 36.18671 | -115.21635 | 10741 ft | 319 kts | 65° |
| 2026-05-06 05:16 | 36.19455 | -115.19003 | 11178 ft | 334 kts | 76° |
| 2026-05-06 05:17 | 36.19579 | -115.16166 | 11995 ft | 335 kts | 87° |
| 2026-05-06 05:17 | 36.19597 | -115.13258 | 12712 ft | 340 kts | 86° |
| 2026-05-06 05:17 | 36.19611 | -115.10310 | 13500 ft | 342 kts | 87° |
| 2026-05-06 05:17 | 36.19618 | -115.07350 | 14219 ft | 346 kts | 87° |
| 2026-05-06 05:18 | 36.19621 | -115.04359 | 14939 ft | 349 kts | 87° |
| 2026-05-06 05:18 | 36.19622 | -115.01343 | 15669 ft | 352 kts | 87° |
| 2026-05-06 05:18 | 36.19621 | -114.98295 | 16367 ft | 356 kts | 87° |
| 2026-05-06 05:18 | 36.19620 | -114.95217 | 17070 ft | 359 kts | 87° |
| 2026-05-06 05:19 | 36.19618 | -114.92209 | 17737 ft | 362 kts | 88° |
| 2026-05-06 05:19 | 36.19615 | -114.89075 | 18349 ft | 366 kts | 88° |
| 2026-05-06 05:19 | 36.19612 | -114.85972 | 18959 ft | 367 kts | 87° |
| 2026-05-06 05:19 | 36.19608 | -114.82813 | 19608 ft | 367 kts | 87° |
| 2026-05-06 05:20 | 36.19602 | -114.79637 | 20180 ft | 370 kts | 87° |
| 2026-05-06 05:20 | 36.19596 | -114.76443 | 20758 ft | 372 kts | 87° |
| 2026-05-06 05:20 | 36.19588 | -114.73230 | 21345 ft | 374 kts | 86° |
| 2026-05-06 05:20 | 36.19580 | -114.70006 | 21908 ft | 375 kts | 86° |
| 2026-05-06 05:21 | 36.19575 | -114.66762 | 22503 ft | 377 kts | 86° |
| 2026-05-06 05:21 | 36.19568 | -114.63507 | 23031 ft | 380 kts | 86° |
| 2026-05-06 05:21 | 36.19560 | -114.60221 | 23536 ft | 382 kts | 86° |
| 2026-05-06 05:21 | 36.19552 | -114.56924 | 24005 ft | 384 kts | 86° |
| 2026-05-06 05:22 | 36.19543 | -114.53627 | 24453 ft | 385 kts | 86° |
| 2026-05-06 05:22 | 36.19533 | -114.50292 | 24876 ft | 388 kts | 85° |
| 2026-05-06 05:22 | 36.19522 | -114.46943 | 25315 ft | 389 kts | 85° |
| 2026-05-06 05:22 | 36.19509 | -114.43590 | 25762 ft | 391 kts | 85° |
| 2026-05-06 05:23 | 36.19496 | -114.40248 | 26168 ft | 393 kts | 85° |
| 2026-05-06 05:23 | 36.19482 | -114.36857 | 26612 ft | 395 kts | 85° |
| 2026-05-06 05:23 | 36.19450 | -114.30020 | 27401 ft | 399 kts | 85° |
| 2026-05-06 05:24 | 36.19434 | -114.26578 | 27820 ft | 401 kts | 85° |
| 2026-05-06 05:24 | 36.19529 | -114.23149 | 28197 ft | 398 kts | 77° |
| 2026-05-06 05:24 | 36.19944 | -114.19762 | 28551 ft | 400 kts | 77° |
| 2026-05-06 05:24 | 36.20349 | -114.16343 | 28913 ft | 402 kts | 77° |
| 2026-05-06 05:25 | 36.20758 | -114.12910 | 29309 ft | 403 kts | 77° |
| 2026-05-06 05:25 | 36.21169 | -114.09457 | 29641 ft | 406 kts | 77° |
| 2026-05-06 05:25 | 36.21581 | -114.05996 | 30012 ft | 408 kts | 77° |
| 2026-05-06 05:25 | 36.21994 | -114.02516 | 30356 ft | 408 kts | 77° |
| 2026-05-06 05:26 | 36.22407 | -113.99027 | 30651 ft | 411 kts | 77° |
| 2026-05-06 05:26 | 36.22823 | -113.95514 | 30918 ft | 413 kts | 77° |
| 2026-05-06 05:26 | 36.23230 | -113.92057 | 31177 ft | 415 kts | 77° |
| 2026-05-06 05:26 | 36.23647 | -113.88510 | 31467 ft | 417 kts | 77° |
| 2026-05-06 05:27 | 36.24064 | -113.84958 | 31834 ft | 416 kts | 77° |
| 2026-05-06 05:27 | 36.24479 | -113.81409 | 32197 ft | 416 kts | 77° |
| 2026-05-06 05:27 | 36.24893 | -113.77855 | 32555 ft | 416 kts | 77° |
| 2026-05-06 05:27 | 36.25306 | -113.74311 | 32925 ft | 416 kts | 77° |
| 2026-05-06 05:28 | 36.25718 | -113.70763 | 33254 ft | 416 kts | 77° |
| 2026-05-06 05:28 | 36.26129 | -113.67209 | 33568 ft | 417 kts | 77° |
| 2026-05-06 05:28 | 36.26538 | -113.63667 | 33907 ft | 417 kts | 77° |
| 2026-05-06 05:28 | 36.26947 | -113.60109 | 34177 ft | 417 kts | 78° |
| 2026-05-06 05:29 | 36.27357 | -113.56535 | 34340 ft | 420 kts | 78° |
| 2026-05-06 05:29 | 36.27769 | -113.52937 | 34532 ft | 423 kts | 78° |
| 2026-05-06 05:29 | 36.28182 | -113.49319 | 34707 ft | 425 kts | 78° |
| 2026-05-06 05:29 | 36.28597 | -113.45674 | 34877 ft | 428 kts | 78° |
| 2026-05-06 05:30 | 36.29013 | -113.42012 | 35081 ft | 430 kts | 79° |
| 2026-05-06 05:30 | 36.29430 | -113.38329 | 35187 ft | 434 kts | 79° |
| 2026-05-06 05:30 | 36.29851 | -113.34612 | 35358 ft | 436 kts | 79° |
| 2026-05-06 05:30 | 36.30269 | -113.30890 | 35547 ft | 439 kts | 79° |
| 2026-05-06 05:31 | 36.30692 | -113.27128 | 35649 ft | 443 kts | 80° |
| 2026-05-06 05:31 | 36.31158 | -113.23394 | 35751 ft | 445 kts | 74° |
| 2026-05-06 05:31 | 36.32223 | -113.19818 | 35927 ft | 442 kts | 64° |
| 2026-05-06 05:31 | 36.33442 | -113.16300 | 36062 ft | 445 kts | 65° |
| 2026-05-06 05:32 | 36.34657 | -113.12772 | 36326 ft | 444 kts | 65° |
| 2026-05-06 05:32 | 36.35886 | -113.09249 | 36479 ft | 446 kts | 65° |
| 2026-05-06 05:32 | 36.38379 | -113.02150 | 36707 ft | 451 kts | 65° |
| 2026-05-06 05:33 | 36.39492 | -112.98984 | 36851 ft | 452 kts | 65° |
| 2026-05-06 05:33 | 36.40648 | -112.95686 | 36910 ft | 454 kts | 65° |
| 2026-05-06 05:33 | 36.43151 | -112.88539 | 36899 ft | 454 kts | 65° |
| 2026-05-06 05:34 | 36.45670 | -112.81334 | 36905 ft | 454 kts | 65° |
| 2026-05-06 05:34 | 36.48178 | -112.74138 | 36902 ft | 456 kts | 65° |
| 2026-05-06 05:35 | 36.50702 | -112.66881 | 36909 ft | 457 kts | 65° |
| 2026-05-06 05:35 | 36.53219 | -112.59627 | 36909 ft | 457 kts | 65° |
| 2026-05-06 05:36 | 36.55732 | -112.52367 | 36908 ft | 457 kts | 65° |
| 2026-05-06 05:36 | 36.58220 | -112.45161 | 36913 ft | 457 kts | 65° |
| 2026-05-06 05:37 | 36.60736 | -112.37860 | 36915 ft | 460 kts | 65° |
| 2026-05-06 05:37 | 36.63255 | -112.30529 | 36908 ft | 460 kts | 65° |
| 2026-05-06 05:38 | 36.65768 | -112.23198 | 36909 ft | 460 kts | 65° |
| 2026-05-06 05:38 | 36.68234 | -112.15989 | 36886 ft | 461 kts | 65° |
| 2026-05-06 05:39 | 36.70744 | -112.08630 | 36884 ft | 462 kts | 66° |
| 2026-05-06 05:39 | 36.73245 | -112.01279 | 36861 ft | 464 kts | 66° |
| 2026-05-06 05:40 | 36.75763 | -111.93863 | 36868 ft | 464 kts | 65° |
| 2026-05-06 05:40 | 36.78271 | -111.86457 | 36821 ft | 464 kts | 66° |
| 2026-05-06 05:41 | 36.80776 | -111.79041 | 36809 ft | 464 kts | 66° |
| 2026-05-06 05:41 | 36.83290 | -111.71588 | 36802 ft | 468 kts | 66° |
| 2026-05-06 05:42 | 36.85976 | -111.64200 | 36785 ft | 466 kts | 57° |
| 2026-05-06 05:42 | 36.89261 | -111.57309 | 36792 ft | 463 kts | 57° |
| 2026-05-06 05:43 | 36.90902 | -111.53860 | 36932 ft | 461 kts | 58° |
| 2026-05-06 05:43 | 36.92551 | -111.50398 | 36929 ft | 462 kts | 57° |
| 2026-05-06 05:43 | 36.95840 | -111.43479 | 36924 ft | 462 kts | 57° |
| 2026-05-06 05:44 | 36.99124 | -111.36561 | 36923 ft | 462 kts | 58° |
| 2026-05-06 05:44 | 37.02376 | -111.29693 | 36879 ft | 462 kts | 58° |
| 2026-05-06 05:45 | 37.05648 | -111.22770 | 36844 ft | 462 kts | 57° |
| 2026-05-06 05:45 | 37.08915 | -111.15842 | 36812 ft | 462 kts | 58° |
| 2026-05-06 05:46 | 37.12187 | -111.08889 | 36764 ft | 465 kts | 58° |
| 2026-05-06 05:46 | 37.15477 | -111.01885 | 36749 ft | 467 kts | 58° |
| 2026-05-06 05:47 | 37.18763 | -110.94869 | 36762 ft | 467 kts | 58° |
| 2026-05-06 05:47 | 37.22056 | -110.87830 | 36752 ft | 467 kts | 58° |
| 2026-05-06 05:48 | 37.25319 | -110.80837 | 36752 ft | 466 kts | 58° |
| 2026-05-06 05:48 | 37.28589 | -110.73816 | 36739 ft | 467 kts | 58° |
| 2026-05-06 05:49 | 37.31871 | -110.66749 | 36738 ft | 468 kts | 58° |
| 2026-05-06 05:49 | 37.35152 | -110.59675 | 36740 ft | 468 kts | 58° |
| 2026-05-06 05:50 | 37.38417 | -110.52616 | 36742 ft | 468 kts | 58° |
| 2026-05-06 05:50 | 37.41133 | -110.46733 | 36742 ft | 468 kts | 58° |
| 2026-05-06 05:51 | 37.44400 | -110.39643 | 36739 ft | 468 kts | 59° |
| 2026-05-06 05:51 | 37.47663 | -110.32547 | 36752 ft | 468 kts | 59° |
| 2026-05-06 05:52 | 37.50922 | -110.25445 | 36750 ft | 468 kts | 59° |
| 2026-05-06 05:52 | 37.54153 | -110.18387 | 36764 ft | 468 kts | 59° |
| 2026-05-06 05:53 | 37.57408 | -110.11260 | 36767 ft | 469 kts | 59° |
| 2026-05-06 05:53 | 37.60675 | -110.04094 | 36777 ft | 472 kts | 59° |
| 2026-05-06 05:54 | 37.63934 | -109.96927 | 36772 ft | 471 kts | 59° |
| 2026-05-06 05:54 | 37.67191 | -109.89752 | 36785 ft | 471 kts | 59° |
| 2026-05-06 05:55 | 37.70443 | -109.82568 | 36786 ft | 471 kts | 59° |
| 2026-05-06 05:55 | 37.73676 | -109.75412 | 36783 ft | 473 kts | 59° |
| 2026-05-06 05:56 | 37.76933 | -109.68190 | 36869 ft | 474 kts | 59° |
| 2026-05-06 05:56 | 37.80192 | -109.60943 | 36863 ft | 473 kts | 59° |
| 2026-05-06 05:57 | 37.83445 | -109.53693 | 36855 ft | 474 kts | 59° |
| 2026-05-06 05:57 | 37.86690 | -109.46448 | 36830 ft | 473 kts | 59° |
| 2026-05-06 05:58 | 37.89915 | -109.39228 | 36812 ft | 477 kts | 59° |
| 2026-05-06 05:58 | 37.93183 | -109.31898 | 36782 ft | 477 kts | 59° |
| 2026-05-06 05:59 | 37.96446 | -109.24561 | 36788 ft | 477 kts | 59° |
| 2026-05-06 05:59 | 37.99701 | -109.17229 | 36782 ft | 476 kts | 59° |
| 2026-05-06 06:00 | 38.02932 | -109.09933 | 36789 ft | 476 kts | 59° |
| 2026-05-06 06:00 | 38.06182 | -109.02582 | 36786 ft | 479 kts | 59° |
| 2026-05-06 06:01 | 38.09435 | -108.95201 | 36780 ft | 479 kts | 60° |
| 2026-05-06 06:01 | 38.12375 | -108.87696 | 36770 ft | 479 kts | 62° |
| 2026-05-06 06:02 | 38.15354 | -108.80120 | 36777 ft | 479 kts | 62° |
| 2026-05-06 06:02 | 38.18340 | -108.72528 | 36768 ft | 482 kts | 63° |
| 2026-05-06 06:03 | 38.21339 | -108.64887 | 36781 ft | 483 kts | 63° |
| 2026-05-06 06:03 | 38.24329 | -108.57249 | 36780 ft | 483 kts | 63° |
| 2026-05-06 06:04 | 38.27318 | -108.49595 | 36795 ft | 483 kts | 63° |
| 2026-05-06 06:04 | 38.30283 | -108.41981 | 36794 ft | 483 kts | 63° |
| 2026-05-06 06:05 | 38.33273 | -108.34288 | 36794 ft | 487 kts | 63° |
| 2026-05-06 06:05 | 38.36264 | -108.26571 | 36800 ft | 487 kts | 63° |
| 2026-05-06 06:06 | 38.39259 | -108.18823 | 36850 ft | 486 kts | 63° |
| 2026-05-06 06:06 | 38.42245 | -108.11081 | 36885 ft | 487 kts | 63° |
| 2026-05-06 06:07 | 38.45220 | -108.03352 | 36921 ft | 482 kts | 63° |
| 2026-05-06 06:07 | 38.48102 | -107.95742 | 36945 ft | 475 kts | 63° |
| 2026-05-06 06:08 | 38.50972 | -107.88150 | 36946 ft | 475 kts | 63° |
| 2026-05-06 06:08 | 38.53841 | -107.80544 | 36794 ft | 475 kts | 63° |
| 2026-05-06 06:09 | 38.56699 | -107.72948 | 36807 ft | 475 kts | 63° |
| 2026-05-06 06:09 | 38.59547 | -107.65358 | 36793 ft | 478 kts | 63° |
| 2026-05-06 06:10 | 38.62415 | -107.57696 | 36786 ft | 478 kts | 63° |
| 2026-05-06 06:10 | 38.65289 | -107.50016 | 36795 ft | 478 kts | 63° |
| 2026-05-06 06:11 | 38.68188 | -107.42381 | 36793 ft | 478 kts | 63° |
| 2026-05-06 06:11 | 38.71075 | -107.34751 | 36783 ft | 481 kts | 63° |
| 2026-05-06 06:12 | 38.73995 | -107.27013 | 36786 ft | 483 kts | 63° |
| 2026-05-06 06:12 | 38.76906 | -107.19277 | 36795 ft | 482 kts | 63° |
| 2026-05-06 06:13 | 38.79807 | -107.11549 | 36787 ft | 482 kts | 63° |
| 2026-05-06 06:13 | 38.82674 | -107.03890 | 36800 ft | 476 kts | 63° |
| 2026-05-06 06:14 | 38.85549 | -106.96193 | 36789 ft | 480 kts | 63° |
| 2026-05-06 06:14 | 38.88436 | -106.88443 | 36766 ft | 481 kts | 63° |
| 2026-05-06 06:15 | 38.91313 | -106.80699 | 36806 ft | 481 kts | 63° |
| 2026-05-06 06:15 | 38.94166 | -106.72999 | 36818 ft | 481 kts | 63° |
| 2026-05-06 06:16 | 38.97044 | -106.65216 | 36425 ft | 490 kts | 63° |
| 2026-05-06 06:16 | 38.98518 | -106.61223 | 35445 ft | 497 kts | 63° |
| 2026-05-06 06:16 | 38.99993 | -106.57207 | 34664 ft | 500 kts | 64° |
| 2026-05-06 06:17 | 39.01470 | -106.53176 | 34212 ft | 494 kts | 64° |
| 2026-05-06 06:17 | 39.02924 | -106.49205 | 33755 ft | 489 kts | 64° |
| 2026-05-06 06:17 | 39.04367 | -106.45262 | 33137 ft | 485 kts | 63° |
| 2026-05-06 06:17 | 39.05802 | -106.41336 | 32530 ft | 482 kts | 63° |
| 2026-05-06 06:18 | 39.07220 | -106.37447 | 31975 ft | 478 kts | 63° |
| 2026-05-06 06:18 | 39.08623 | -106.33595 | 31499 ft | 473 kts | 62° |
| 2026-05-06 06:18 | 39.10015 | -106.29770 | 30970 ft | 470 kts | 62° |
| 2026-05-06 06:18 | 39.11391 | -106.25983 | 30410 ft | 468 kts | 61° |
| 2026-05-06 06:19 | 39.12762 | -106.22206 | 29801 ft | 466 kts | 61° |
| 2026-05-06 06:19 | 39.14113 | -106.18476 | 29166 ft | 464 kts | 61° |
| 2026-05-06 06:19 | 39.15467 | -106.14723 | 28510 ft | 461 kts | 61° |
| 2026-05-06 06:19 | 39.16814 | -106.10980 | 27879 ft | 458 kts | 62° |
| 2026-05-06 06:20 | 39.18146 | -106.07279 | 27352 ft | 454 kts | 62° |
| 2026-05-06 06:20 | 39.19473 | -106.03586 | 26743 ft | 452 kts | 62° |
| 2026-05-06 06:20 | 39.20791 | -105.99914 | 26128 ft | 451 kts | 62° |
| 2026-05-06 06:20 | 39.22098 | -105.96264 | 25523 ft | 450 kts | 63° |
| 2026-05-06 06:21 | 39.23411 | -105.92601 | 24871 ft | 449 kts | 63° |
| 2026-05-06 06:21 | 39.24725 | -105.88962 | 24430 ft | 446 kts | 63° |
| 2026-05-06 06:21 | 39.26027 | -105.85350 | 24021 ft | 441 kts | 63° |
| 2026-05-06 06:21 | 39.27297 | -105.81819 | 23593 ft | 438 kts | 63° |
| 2026-05-06 06:22 | 39.28589 | -105.78224 | 23139 ft | 435 kts | 63° |
| 2026-05-06 06:22 | 39.29857 | -105.74694 | 22668 ft | 431 kts | 63° |
| 2026-05-06 06:22 | 39.31092 | -105.71250 | 22245 ft | 426 kts | 63° |
| 2026-05-06 06:22 | 39.32328 | -105.67810 | 21818 ft | 422 kts | 63° |
| 2026-05-06 06:23 | 39.33577 | -105.64396 | 21311 ft | 420 kts | 62° |
| 2026-05-06 06:23 | 39.34820 | -105.60992 | 20978 ft | 416 kts | 62° |
| 2026-05-06 06:23 | 39.36045 | -105.57632 | 20557 ft | 409 kts | 62° |
| 2026-05-06 06:23 | 39.37241 | -105.54348 | 20151 ft | 399 kts | 62° |
| 2026-05-06 06:24 | 39.38411 | -105.51129 | 19760 ft | 389 kts | 62° |
| 2026-05-06 06:24 | 39.39546 | -105.48001 | 19422 ft | 380 kts | 62° |
| 2026-05-06 06:24 | 39.40660 | -105.44932 | 19042 ft | 373 kts | 62° |
| 2026-05-06 06:24 | 39.41531 | -105.41802 | 18568 ft | 371 kts | 79° |
| 2026-05-06 06:25 | 39.41651 | -105.38570 | 18235 ft | 363 kts | 89° |
| 2026-05-06 06:25 | 39.41692 | -105.35304 | 17804 ft | 364 kts | 88° |
| 2026-05-06 06:25 | 39.41752 | -105.28773 | 16993 ft | 362 kts | 89° |
| 2026-05-06 06:26 | 39.41771 | -105.25544 | 16617 ft | 355 kts | 89° |
| 2026-05-06 06:26 | 39.41788 | -105.22381 | 16254 ft | 349 kts | 89° |
| 2026-05-06 06:26 | 39.41804 | -105.19245 | 15909 ft | 348 kts | 89° |
| 2026-05-06 06:26 | 39.41819 | -105.16119 | 15544 ft | 347 kts | 90° |
| 2026-05-06 06:27 | 39.41832 | -105.12999 | 15183 ft | 346 kts | 90° |
| 2026-05-06 06:27 | 39.41845 | -105.09927 | 14809 ft | 337 kts | 90° |
| 2026-05-06 06:27 | 39.41856 | -105.06955 | 14470 ft | 327 kts | 90° |
| 2026-05-06 06:27 | 39.41866 | -105.04067 | 14188 ft | 315 kts | 90° |
| 2026-05-06 06:28 | 39.41875 | -105.01284 | 13849 ft | 305 kts | 90° |
| 2026-05-06 06:28 | 39.41884 | -104.98576 | 13445 ft | 297 kts | 90° |
| 2026-05-06 06:28 | 39.41892 | -104.95947 | 13107 ft | 288 kts | 90° |
| 2026-05-06 06:28 | 39.41973 | -104.93423 | 12920 ft | 276 kts | 83° |
| 2026-05-06 06:29 | 39.42197 | -104.90969 | 12635 ft | 273 kts | 84° |
| 2026-05-06 06:29 | 39.42408 | -104.88535 | 12318 ft | 272 kts | 84° |
| 2026-05-06 06:29 | 39.42612 | -104.86109 | 12037 ft | 270 kts | 84° |
| 2026-05-06 06:29 | 39.42832 | -104.83713 | 11746 ft | 267 kts | 84° |
| 2026-05-06 06:30 | 39.43047 | -104.81336 | 11466 ft | 265 kts | 84° |
| 2026-05-06 06:30 | 39.43254 | -104.79015 | 11254 ft | 254 kts | 84° |
| 2026-05-06 06:30 | 39.43461 | -104.76785 | 11032 ft | 244 kts | 81° |
| 2026-05-06 06:30 | 39.43963 | -104.74769 | 10975 ft | 231 kts | 68° |
| 2026-05-06 06:31 | 39.44564 | -104.72852 | 10992 ft | 229 kts | 68° |
| 2026-05-06 06:31 | 39.45191 | -104.70966 | 10978 ft | 228 kts | 60° |
| 2026-05-06 06:31 | 39.46283 | -104.69510 | 10953 ft | 227 kts | 31° |
| 2026-05-06 06:31 | 39.47645 | -104.68739 | 10995 ft | 227 kts | 18° |
| 2026-05-06 06:32 | 39.49151 | -104.68096 | 11012 ft | 228 kts | 16° |
| 2026-05-06 06:32 | 39.50689 | -104.67489 | 10994 ft | 228 kts | 15° |
| 2026-05-06 06:32 | 39.52191 | -104.66924 | 10986 ft | 228 kts | 15° |
| 2026-05-06 06:32 | 39.53714 | -104.66463 | 10916 ft | 226 kts | 6° |
| 2026-05-06 06:33 | 39.55283 | -104.66347 | 10683 ft | 225 kts | 359° |
| 2026-05-06 06:33 | 39.56852 | -104.66346 | 10378 ft | 226 kts | 360° |
| 2026-05-06 06:33 | 39.58428 | -104.66342 | 10066 ft | 226 kts | 1° |
| 2026-05-06 06:33 | 39.60007 | -104.66326 | 9724 ft | 226 kts | 1° |
| 2026-05-06 06:34 | 39.61572 | -104.66309 | 9388 ft | 224 kts | 1° |
| 2026-05-06 06:34 | 39.63123 | -104.66291 | 9111 ft | 221 kts | 2° |
| 2026-05-06 06:34 | 39.64650 | -104.66273 | 8886 ft | 218 kts | 2° |
| 2026-05-06 06:34 | 39.66165 | -104.66255 | 8696 ft | 216 kts | 3° |
| 2026-05-06 06:35 | 39.67662 | -104.66237 | 8466 ft | 216 kts | 2° |
| 2026-05-06 06:35 | 39.69158 | -104.66220 | 8199 ft | 213 kts | 2° |
| 2026-05-06 06:35 | 39.70573 | -104.66204 | 7968 ft | 194 kts | 3° |
| 2026-05-06 06:35 | 39.71887 | -104.66188 | 7719 ft | 189 kts | 3° |
| 2026-05-06 06:36 | 39.73210 | -104.66171 | 7467 ft | 187 kts | 3° |
| 2026-05-06 06:36 | 39.74453 | -104.66157 | 7240 ft | 172 kts | 3° |
| 2026-05-06 06:36 | 39.75623 | -104.66141 | 7025 ft | 165 kts | 4° |
| 2026-05-06 06:36 | 39.76754 | -104.66128 | 6832 ft | 162 kts | 4° |
| 2026-05-06 06:37 | 39.77875 | -104.66117 | 6615 ft | 161 kts | 4° |
| 2026-05-06 06:37 | 39.78129 | -104.66114 | 6557 ft | 160 kts | 4° |
| 2026-05-06 06:37 | 39.78602 | -104.66106 | 6424 ft | 160 kts | 4° |
| 2026-05-06 06:37 | 39.79700 | -104.66092 | 6146 ft | 157 kts | 2° |
| 2026-05-06 06:38 | 39.80780 | -104.66079 | 5917 ft | 154 kts | 1° |
| 2026-05-06 06:38 | 39.81852 | -104.66067 | 5673 ft | 154 kts | 0° |
| 2026-05-06 06:38 | 39.82917 | -104.66055 | 5496 ft | 151 kts | 0° |
| 2026-05-06 06:38 | 39.83598 | -104.66046 | 5433 ft | 140 kts | 360° |
| 2026-05-06 06:39 | 39.84415 | -104.66036 | 5413 ft | 87 kts | 0° |
| 2026-05-06 06:39 | 39.84879 | -104.66030 | 5404 ft | 51 kts | 0° |
| 2026-05-06 06:39 | 39.85253 | -104.66126 | 5399 ft | 31 kts | 332° |
| 2026-05-06 06:39 | 39.85393 | -104.66222 | 5393 ft | 19 kts | 340° |
| 2026-05-06 06:40 | 39.85475 | -104.66238 | 5394 ft | 14 kts | 0° |
| 2026-05-06 06:40 | 39.85567 | -104.66245 | 5393 ft | 10 kts | 357° |
| 2026-05-06 06:40 | 39.85587 | -104.66242 | 5391 ft | 2 kts | 6° |
| 2026-05-06 06:40 | 39.85611 | -104.66239 | 5396 ft | 5 kts | 6° |
| 2026-05-06 06:41 | 39.85650 | -104.66235 | 5395 ft | 7 kts | 4° |
| 2026-05-06 06:41 | 39.85693 | -104.66234 | 5389 ft | 11 kts | 359° |
| 2026-05-06 06:41 | 39.85789 | -104.66235 | 5391 ft | 15 kts | 2° |
| 2026-05-06 06:41 | 39.85888 | -104.66232 | 5390 ft | 10 kts | 360° |
| 2026-05-06 06:42 | 39.85924 | -104.66233 | 5390 ft | 5 kts | 359° |
| 2026-05-06 06:42 | 39.85943 | -104.66233 | 5390 ft | 0 kts | 359° |
| 2026-05-06 06:43 | 39.85950 | -104.66233 | 5390 ft | 3 kts | 2° |
| 2026-05-06 06:43 | 39.86001 | -104.66231 | 5390 ft | 11 kts | 1° |
| 2026-05-06 06:43 | 39.86079 | -104.66235 | 5388 ft | 11 kts | 338° |
| 2026-05-06 06:43 | 39.86106 | -104.66334 | 5384 ft | 11 kts | 271° |
| 2026-05-06 06:44 | 39.86105 | -104.66438 | 5381 ft | 11 kts | 269° |
| 2026-05-06 06:44 | 39.86148 | -104.66505 | 5378 ft | 9 kts | 347° |
| 2026-05-06 06:44 | 39.86185 | -104.66562 | 5378 ft | 10 kts | 271° |
| 2026-05-06 06:44 | 39.86185 | -104.66658 | 5379 ft | 11 kts | 270° |
| 2026-05-06 06:45 | 39.86185 | -104.66756 | 5379 ft | 10 kts | 270° |
| 2026-05-06 06:45 | 39.86187 | -104.66799 | 5379 ft | 2 kts | 263° |
| 2026-05-06 06:45 | 39.86189 | -104.66831 | 5379 ft | 5 kts | 291° |
| 2026-05-06 06:45 | 39.86220 | -104.66849 | 5379 ft | 5 kts | 355° |
| 2026-05-06 06:46 | 39.86244 | -104.66849 | 5377 ft | 2 kts | 359° |
| 2026-05-06 06:46 | 39.86251 | -104.66849 | 5377 ft | 0 kts | 359° |